createdAt,value
2023-02-11T00:01:35.065Z,13.67
2023-02-11T00:05:46.621Z,15.73
2023-02-11T00:09:58.356Z,14.77
2023-02-11T00:14:10.787Z,14.50
2023-02-11T00:18:22.802Z,10.80
2023-02-11T00:22:34.678Z,9.50
2023-02-11T00:26:47.262Z,9.57
2023-02-11T00:30:59.452Z,7.97
2023-02-11T00:35:11.124Z,15.13
2023-02-11T00:39:24.153Z,8.43
2023-02-11T00:43:36.456Z,10.67
2023-02-11T00:47:48.257Z,16.47
2023-02-11T00:51:59.889Z,11.27
2023-02-11T00:56:11.511Z,10.53
2023-02-11T01:00:23.276Z,11.83
2023-02-11T01:04:34.911Z,8.30
2023-02-11T01:08:46.537Z,9.03
2023-02-11T01:12:58.228Z,9.77
2023-02-11T01:17:10.890Z,10.77
2023-02-11T01:21:22.426Z,9.77
2023-02-11T01:25:35.936Z,9.03
2023-02-11T01:29:48.744Z,10.03
2023-02-11T01:34:01.135Z,13.03
2023-02-11T01:38:18.857Z,8.43
2023-02-11T01:42:30.562Z,9.00
2023-02-11T01:46:43.506Z,14.37
2023-02-11T01:51:03.225Z,10.73
2023-02-11T01:55:33.481Z,9.50
2023-02-11T02:00:03.815Z,8.10
2023-02-11T02:04:31.710Z,10.60
2023-02-11T02:08:52.543Z,13.30
2023-02-11T02:13:04.204Z,12.17
2023-02-11T02:17:33.551Z,11.67
2023-02-11T02:22:29.346Z,12.73
2023-02-11T02:26:54.180Z,11.30
2023-02-11T02:31:27.243Z,11.47
2023-02-11T02:36:10.318Z,11.20
2023-02-11T02:40:54.319Z,8.90
2023-02-11T02:45:09.162Z,17.17
2023-02-11T02:49:20.745Z,9.17
2023-02-11T02:53:45.407Z,6.77
2023-02-11T02:58:23.738Z,13.07
2023-02-11T03:02:39.820Z,8.73
2023-02-11T03:07:12.284Z,10.07
2023-02-11T03:11:26.029Z,11.60
2023-02-11T03:15:44.911Z,10.40
2023-02-11T03:19:59.421Z,10.33
2023-02-11T03:24:17.058Z,10.67
2023-02-11T03:28:59.203Z,7.57
2023-02-11T03:33:35.660Z,13.10
2023-02-11T03:38:17.414Z,11.30
2023-02-11T03:42:35.667Z,11.80
2023-02-11T03:46:50.686Z,10.97
2023-02-11T03:51:06.518Z,11.50
2023-02-11T03:55:20.874Z,15.03
2023-02-11T03:59:32.526Z,10.43
2023-02-11T04:03:44.135Z,8.57
2023-02-11T04:07:56.016Z,12.90
2023-02-11T04:12:08.138Z,11.10
2023-02-11T04:16:19.806Z,12.27
2023-02-11T04:20:31.408Z,12.40
2023-02-11T04:24:44.118Z,13.57
2023-02-11T04:28:55.686Z,10.40
2023-02-11T04:33:07.339Z,14.87
2023-02-11T04:37:18.910Z,13.13
2023-02-11T04:41:30.512Z,11.97
2023-02-11T04:45:42.210Z,13.40
2023-02-11T04:49:53.909Z,16.10
2023-02-11T04:54:05.569Z,19.40
2023-02-11T04:58:18.334Z,15.00
2023-02-11T05:02:29.962Z,16.73
2023-02-11T05:06:41.573Z,16.67
2023-02-11T05:10:53.260Z,14.80
2023-02-11T05:15:05.556Z,18.57
2023-02-11T05:19:17.081Z,15.10
2023-02-11T05:23:28.655Z,15.57
2023-02-11T05:27:40.438Z,14.27
2023-02-11T05:31:52.578Z,15.43
2023-02-11T05:36:08.412Z,15.33
2023-02-11T05:40:20.018Z,14.63
2023-02-11T05:44:31.781Z,14.80
2023-02-11T05:48:43.508Z,16.73
2023-02-11T05:52:55.103Z,13.77
2023-02-11T05:57:06.864Z,18.10
2023-02-11T06:01:18.889Z,15.73
2023-02-11T06:05:31.416Z,15.87
2023-02-11T06:09:43.270Z,14.53
2023-02-11T06:13:54.841Z,16.60
2023-02-11T06:18:06.413Z,18.83
2023-02-11T06:22:18.027Z,24.00
2023-02-11T06:26:31.000Z,23.67
2023-02-11T06:30:42.833Z,21.73
2023-02-11T06:34:54.546Z,18.27
2023-02-11T06:39:06.626Z,18.37
2023-02-11T06:43:18.371Z,17.70
2023-02-11T06:47:29.980Z,23.13
2023-02-11T06:51:41.617Z,26.03
2023-02-11T06:55:53.251Z,20.30
2023-02-11T07:00:05.900Z,17.03
2023-02-11T07:04:17.593Z,21.43
2023-02-11T07:08:29.439Z,25.63
2023-02-11T07:12:41.325Z,21.47
2023-02-11T07:16:52.906Z,24.97
2023-02-11T07:21:06.357Z,21.33
2023-02-11T07:25:17.941Z,24.50
2023-02-11T07:29:29.811Z,22.63
2023-02-11T07:33:42.122Z,26.27
2023-02-11T07:37:53.739Z,21.47
2023-02-11T07:42:05.637Z,29.23
2023-02-11T07:46:20.400Z,23.00
2023-02-11T07:50:32.084Z,28.47
2023-02-11T07:54:43.753Z,28.37
2023-02-11T07:58:56.910Z,27.03
2023-02-11T08:03:08.540Z,30.33
2023-02-11T08:07:20.147Z,22.80
2023-02-11T08:11:31.782Z,27.63
2023-02-11T08:15:43.464Z,30.43
2023-02-11T08:19:55.066Z,30.67
2023-02-11T08:24:07.844Z,27.57
2023-02-11T08:28:19.533Z,29.00
2023-02-11T08:32:31.189Z,31.07
2023-02-11T08:36:43.464Z,37.30
2023-02-11T08:40:55.117Z,27.10
2023-02-11T08:45:07.385Z,31.33
2023-02-11T08:49:19.741Z,32.87
2023-02-11T08:53:31.310Z,27.30
2023-02-11T08:57:42.926Z,28.60
2023-02-11T09:01:54.726Z,29.43
2023-02-11T09:06:07.851Z,33.27
2023-02-11T09:10:19.662Z,27.33
2023-02-11T09:14:31.260Z,39.87
2023-02-11T09:18:44.401Z,35.90
2023-02-11T09:22:58.398Z,33.07
2023-02-11T09:27:10.035Z,31.90
2023-02-11T09:31:24.830Z,33.73
2023-02-11T09:35:36.521Z,31.47
2023-02-11T09:39:48.213Z,32.50
2023-02-11T09:44:04.647Z,31.57
2023-02-11T09:48:20.193Z,27.67
2023-02-11T09:53:07.168Z,31.70
2023-02-11T09:57:28.332Z,34.33
2023-02-11T10:01:49.852Z,31.70
2023-02-11T10:06:20.031Z,34.37
2023-02-11T10:10:47.682Z,32.80
2023-02-11T10:15:18.385Z,31.90
2023-02-11T10:19:32.991Z,28.60
2023-02-11T10:23:49.477Z,31.47
2023-02-11T10:28:10.028Z,28.17
2023-02-11T10:32:40.490Z,29.83
2023-02-11T10:36:52.254Z,26.80
2023-02-11T10:41:05.174Z,28.97
2023-02-11T10:45:41.443Z,26.87
2023-02-11T10:49:54.059Z,25.90
2023-02-11T10:54:13.602Z,26.77
2023-02-11T10:58:34.868Z,29.27
2023-02-11T11:03:24.593Z,25.67
2023-02-11T11:07:47.082Z,25.20
2023-02-11T11:12:01.031Z,29.73
2023-02-11T11:16:12.676Z,27.30
2023-02-11T11:20:29.212Z,29.20
2023-02-11T11:24:46.600Z,25.65
2023-02-11T11:29:07.882Z,25.05
2023-02-11T11:33:31.351Z,28.15
2023-02-11T11:37:44.096Z,21.90
2023-02-11T11:41:58.993Z,20.67
2023-02-11T11:46:12.216Z,18.05
2023-02-11T11:51:18.268Z,18.30
2023-02-11T11:55:45.545Z,21.42
2023-02-11T11:59:58.422Z,14.50
2023-02-11T12:04:16.013Z,17.10
2023-02-11T12:09:08.291Z,17.70
2023-02-11T12:13:23.171Z,15.27
2023-02-11T12:17:46.833Z,13.60
2023-02-11T12:22:11.043Z,12.77
2023-02-11T12:26:29.343Z,13.93
2023-02-11T12:30:44.001Z,12.18
2023-02-11T12:35:11.407Z,14.70
2023-02-11T12:39:47.823Z,11.82
2023-02-11T12:43:59.733Z,13.82
2023-02-11T12:48:17.359Z,10.20
2023-02-11T12:52:49.063Z,14.52
2023-02-11T12:57:24.287Z,10.40
2023-02-11T13:01:40.443Z,13.02
2023-02-11T13:05:57.021Z,14.00
2023-02-11T13:10:15.616Z,13.02
2023-02-11T13:14:29.642Z,12.02
2023-02-11T13:19:22.196Z,11.18
2023-02-11T13:23:52.062Z,9.80
2023-02-11T13:28:29.890Z,9.38
2023-02-11T13:32:53.639Z,10.30
2023-02-11T13:37:05.298Z,11.95
2023-02-11T13:41:24.733Z,11.68
2023-02-11T13:45:39.999Z,9.15
2023-02-11T13:49:53.478Z,9.88
2023-02-11T13:54:07.502Z,10.90
2023-02-11T13:58:28.328Z,11.32
2023-02-11T14:02:58.484Z,15.77
2023-02-11T14:07:52.229Z,11.40
2023-02-11T14:12:26.211Z,10.43
2023-02-11T14:17:00.412Z,12.68
2023-02-11T14:21:19.177Z,10.70
2023-02-11T14:25:31.248Z,13.70
2023-02-11T14:29:58.157Z,11.35
2023-02-11T14:34:18.918Z,16.30
2023-02-11T14:38:58.541Z,12.63
2023-02-11T14:43:18.521Z,8.82
2023-02-11T14:47:43.050Z,8.63
2023-02-11T14:52:00.302Z,12.88
2023-02-11T14:56:21.842Z,10.32
2023-02-11T15:00:33.746Z,10.77
2023-02-11T15:04:45.425Z,11.57
2023-02-11T15:09:27.948Z,8.82
2023-02-11T15:13:47.455Z,8.32
2023-02-11T15:18:03.364Z,10.77
2023-02-11T15:22:22.245Z,11.23
2023-02-11T15:26:33.972Z,10.80
2023-02-11T16:17:59.735Z,7.13
2023-02-11T16:22:17.007Z,9.10
2023-02-11T16:26:36.389Z,9.03
2023-02-11T16:30:53.019Z,7.93
2023-02-11T16:35:11.525Z,9.80
2023-02-11T16:39:23.170Z,9.70
2023-02-11T16:43:34.700Z,9.50
2023-02-11T16:47:46.469Z,16.58
2023-02-11T16:52:05.438Z,10.00
2023-02-11T16:56:18.295Z,10.52
2023-02-11T17:00:30.044Z,12.00
2023-02-11T17:04:41.866Z,15.18
2023-02-11T17:08:53.732Z,20.63
2023-02-11T17:13:05.280Z,16.23
2023-02-11T17:17:17.447Z,14.10
2023-02-11T17:21:31.353Z,28.17
2023-02-11T17:25:42.972Z,13.17
2023-02-11T17:29:54.648Z,9.80
2023-02-11T17:34:06.837Z,12.00
2023-02-11T17:38:18.535Z,8.87
2023-02-11T17:42:31.240Z,7.07
2023-02-11T17:47:04.786Z,13.80
2023-02-11T17:51:34.545Z,10.43
2023-02-11T17:55:46.076Z,9.83
2023-02-11T17:59:57.809Z,15.20
2023-02-11T18:04:14.046Z,10.27
2023-02-11T18:08:25.568Z,12.33
2023-02-11T18:12:37.180Z,13.97
2023-02-11T18:16:52.314Z,9.70
2023-02-11T18:21:08.394Z,10.83
2023-02-11T18:25:20.066Z,9.40
2023-02-11T18:29:31.512Z,8.30
2023-02-11T18:33:43.234Z,12.97
2023-02-11T18:37:54.772Z,12.27
2023-02-11T18:42:06.303Z,12.60
2023-02-11T18:46:19.182Z,13.20
2023-02-11T18:50:31.006Z,12.90
2023-02-11T18:54:42.563Z,11.70
2023-02-11T18:58:56.113Z,11.27
2023-02-11T19:03:29.596Z,14.13
2023-02-11T19:07:41.840Z,26.73
2023-02-11T19:11:57.806Z,24.83
2023-02-11T19:16:11.459Z,12.53
2023-02-11T19:20:23.203Z,16.37
2023-02-11T19:24:35.630Z,11.90
2023-02-11T19:28:47.173Z,13.03
2023-02-11T19:32:58.709Z,11.90
2023-02-11T19:37:12.542Z,12.77
2023-02-11T19:41:24.192Z,16.00
2023-02-11T19:45:37.507Z,19.63
2023-02-11T19:49:48.949Z,14.93
2023-02-11T19:54:00.909Z,12.20
2023-02-11T19:58:12.827Z,16.27
2023-02-11T20:02:24.630Z,21.03
2023-02-11T20:06:36.287Z,37.13
2023-02-11T20:10:48.144Z,19.77
2023-02-11T20:14:59.629Z,27.93
2023-02-11T20:19:16.697Z,43.10
2023-02-11T20:23:29.725Z,20.90
2023-02-11T20:27:41.624Z,12.27
2023-02-11T20:31:54.018Z,20.00
2023-02-11T20:36:12.523Z,24.63
2023-02-11T20:40:24.019Z,16.60
2023-02-11T20:44:36.719Z,15.93
2023-02-11T20:48:48.751Z,14.47
2023-02-11T20:53:00.256Z,15.77
2023-02-11T20:57:12.038Z,18.93
2023-02-11T21:01:25.094Z,21.57
2023-02-11T21:05:36.750Z,15.47
2023-02-11T21:09:48.280Z,17.60
2023-02-11T21:14:00.125Z,18.23
2023-02-11T21:18:11.738Z,17.67
2023-02-11T21:22:23.595Z,19.03
2023-02-11T21:26:35.969Z,16.50
2023-02-11T21:30:50.593Z,13.13
2023-02-11T21:35:02.529Z,15.33
2023-02-11T21:39:14.239Z,11.27
2023-02-11T21:43:25.800Z,14.10
2023-02-11T21:48:02.234Z,12.77
2023-02-11T21:52:13.673Z,11.60
2023-02-11T21:56:28.696Z,11.77
2023-02-11T22:00:40.391Z,11.70
2023-02-11T22:04:51.974Z,12.40
2023-02-11T22:09:09.824Z,11.20
2023-02-11T22:13:21.358Z,14.87
2023-02-11T22:17:33.746Z,13.43
2023-02-11T22:21:45.331Z,12.33
2023-02-11T22:25:59.164Z,13.47
2023-02-11T22:30:11.589Z,11.70
2023-02-11T22:34:23.618Z,12.23
2023-02-11T22:38:35.657Z,9.87
2023-02-11T22:42:47.496Z,11.80
2023-02-11T22:46:59.089Z,13.13
2023-02-11T22:51:14.187Z,10.83
2023-02-11T22:55:26.050Z,11.33
2023-02-11T22:59:39.672Z,12.20
2023-02-11T23:03:51.355Z,12.20
2023-02-11T23:08:02.982Z,12.20
2023-02-11T23:12:14.549Z,13.90
2023-02-11T23:16:32.285Z,10.27
2023-02-11T23:20:44.332Z,15.30
2023-02-11T23:24:55.916Z,11.93
2023-02-11T23:29:07.923Z,11.47
2023-02-11T23:33:19.720Z,15.80
2023-02-11T23:37:31.304Z,12.27
2023-02-11T23:41:42.884Z,12.17
2023-02-11T23:45:54.833Z,12.93
2023-02-11T23:50:10.147Z,14.77
2023-02-11T23:54:22.023Z,14.37
2023-02-11T23:58:33.559Z,14.90
